»·PEaware :: N782FL KAVX-KSAN

N782FL :: KAVX-KSAN

FLIGHT INFORMATION

Flight Status: Arrived
Operator: Privately registered:
United States
More flights under this callsign
Pilot: Luis B. (14232)
Aircraft: BEECH AIRCRAFT BARON
(BE58)
More flights by this aircraft type
Origin: KAVX Catalina
United States
Destination: KSAN San Diego Intl-Lindbergh
United States
More flights between these airports :: More routes between these airports
Route: +SXC V208 OCN V23 MZB
File this flight plan on PilotEdge
Remarks: TEC route CSTN56 I-8!!
Altitude:
(Current/Filed)
5,000ft
Speed:
(Current/Filed)
160kts
Departed: 12-Dec-17 11:48 AM
Arrived: 12-Dec-17 12:33 PM
Distance/Time
Traveled:
74nm/0:44
Distance/Time
To Go:
Arrived

Flight Plot

Page will automatically refresh every two minutes.


Map Options




Map Legend


Flown Route
Filed Route
Departure Airport
Arrival Airport
Navaid (VOR, NDB)
Fix

Horizontal Profiles

Position Reports

Time Latitude Longitude Heading Altitude Ground
Speed
12-Dec-17 11:37 33.403485 -118.415020 324 1552ft 0kts
12-Dec-17 11:38 33.403485 -118.415020 324 1552ft 0kts
12-Dec-17 11:39 33.403485 -118.415020 324 1552ft 0kts
12-Dec-17 11:40 33.403485 -118.415020 324 1552ft 0kts
12-Dec-17 11:41 33.403485 -118.415020 324 1552ft 0kts
12-Dec-17 11:42 33.403485 -118.415020 324 1552ft 0kts
12-Dec-17 11:43 33.403485 -118.415020 324 1552ft 0kts
12-Dec-17 11:44 33.403485 -118.415020 324 1552ft 0kts
12-Dec-17 11:45 33.403485 -118.415020 324 1552ft 0kts
12-Dec-17 11:46 33.403485 -118.415020 324 1552ft 0kts
12-Dec-17 11:47 33.403471 -118.415440 258 1552ft 5kts
12-Dec-17 11:48 33.403217 -118.418057 234 1552ft 11kts
12-Dec-17 11:49 33.402269 -118.419718 317 1552ft 0kts
12-Dec-17 11:50 33.402268 -118.419718 316 1552ft 0kts
12-Dec-17 11:51 33.402268 -118.419717 317 1552ft 0kts
12-Dec-17 11:52 33.402268 -118.419717 317 1552ft 0kts
12-Dec-17 11:53 33.402564 -118.419903 29 1552ft 4kts
12-Dec-17 11:54 33.415826 -118.396223 55 2168ft 142kts
12-Dec-17 11:55 33.418242 -118.356409 161 3634ft 149kts
12-Dec-17 11:56 33.387598 -118.392378 230 4025ft 190kts
12-Dec-17 11:57 33.356496 -118.363998 90 4030ft 195kts
12-Dec-17 11:58 33.354366 -118.299934 94 4373ft 185kts
12-Dec-17 11:59 33.347983 -118.239199 97 4969ft 184kts
12-Dec-17 12:00 33.339629 -118.175638 98 5015ft 195kts
12-Dec-17 12:01 33.331248 -118.115353 98 5012ft 178kts
12-Dec-17 12:02 33.323037 -118.057944 98 5074ft 175kts
12-Dec-17 12:03 33.314687 -118.000256 98 5066ft 176kts
12-Dec-17 12:04 33.306304 -117.942516 98 5057ft 177kts
12-Dec-17 12:05 33.297803 -117.884099 97 5047ft 178kts
12-Dec-17 12:06 33.289452 -117.827175 97 5041ft 167kts
12-Dec-17 12:07 33.281093 -117.769780 97 5038ft 179kts
12-Dec-17 12:08 33.272349 -117.710607 97 5046ft 181kts
12-Dec-17 12:09 33.263534 -117.651101 97 5046ft 181kts
12-Dec-17 12:10 33.257375 -117.591392 93 5046ft 181kts
12-Dec-17 12:11 33.251731 -117.531723 94 5046ft 179kts
12-Dec-17 12:12 33.246031 -117.472771 94 5045ft 177kts
12-Dec-17 12:13 33.236884 -117.415966 135 5040ft 178kts
12-Dec-17 12:14 33.190419 -117.395899 160 5051ft 180kts
12-Dec-17 12:15 33.143156 -117.376501 159 5048ft 179kts
12-Dec-17 12:16 33.096023 -117.356808 159 5045ft 179kts
12-Dec-17 12:17 33.049321 -117.337354 160 5046ft 179kts
12-Dec-17 12:18 33.002313 -117.317729 160 5047ft 179kts
12-Dec-17 12:18 32.963093 -117.301293 159 5048ft 179kts
12-Dec-17 12:20 32.908080 -117.278215 159 5047ft 180kts
12-Dec-17 12:20 32.869189 -117.261956 160 5046ft 179kts
12-Dec-17 12:22 32.814348 -117.239019 160 5045ft 179kts
12-Dec-17 12:22 32.776441 -117.220064 126 5037ft 177kts
12-Dec-17 12:24 32.769996 -117.153506 91 5050ft 175kts
12-Dec-17 12:24 32.767411 -117.105131 99 5051ft 176kts
12-Dec-17 12:25 32.757043 -117.048433 101 5052ft 176kts
12-Dec-17 12:26 32.746558 -116.991872 100 5046ft 175kts
12-Dec-17 12:27 32.736119 -116.935522 100 5041ft 174kts
12-Dec-17 12:28 32.725800 -116.879364 100 5041ft 173kts
12-Dec-17 12:29 32.691333 -116.856247 190 5038ft 176kts
12-Dec-17 12:30 32.663737 -116.898353 251 4605ft 177kts
12-Dec-17 12:31 32.673632 -116.952367 294 3970ft 178kts
12-Dec-17 12:32 32.688227 -117.003907 288 3408ft 146kts
12-Dec-17 12:34 32.706928 -117.080023 287 2197ft 137kts
12-Dec-17 12:35 32.717005 -117.121547 287 1506ft 113kts
12-Dec-17 12:36 32.725434 -117.156412 287 594ft 104kts
12-Dec-17 12:37 32.733235 -117.188215 287 16ft 63kts
12-Dec-17 12:38 32.734774 -117.190398 75 16ft 7kts
12-Dec-17 12:39 32.733530 -117.184797 106 17ft 21kts
12-Dec-17 12:40 32.732339 -117.177821 56 24ft 19kts

Navigation Log

Ident Type
1. KAVX Airport
2. SXC Navaid
3. AVOLS Fix
4. PACIF Fix
5. HUBRD Fix
6. OCN Navaid
7. HURSI Fix
8. CARIF Fix
9. MZB Navaid
10. KSAN Airport